Time;durP1;ratioP1;P1;durP2;ratioP2;P2;SDS_P1;SDS_P2;PMS_P1;PMS_P2;Temp;Humidity;BMP_temperature;BMP_pressure;BME280_temperature;BME280_humidity;BME280_pressure;Samples;Min_cycle;Max_cycle;Signal;HPM_P1;HPM_P2
2022/08/12 00:43:16;;;;;;;1999.90;999.90;;;;;;;21.17;50.51;97991.75;5062311;28;20036;-78
2022/08/12 00:48:30;;;;;;;1999.90;999.90;;;;;;;20.99;50.85;97987.72;5060915;28;20040;-77
2022/08/12 00:50:59;;;;;;;1999.90;999.90;;;;;;;21.02;50.71;97992.53;5060221;28;20029;-77
2022/08/12 00:53:27;;;;;;;1999.90;999.90;;;;;;;20.95;50.84;97997.16;5060363;28;20060;-78
2022/08/12 00:55:55;;;;;;;1999.90;999.90;;;;;;;21.02;51.63;97992.53;5058437;28;20087;-78
2022/08/12 00:58:23;;;;;;;1999.90;999.90;;;;;;;21.04;51.72;97995.78;5058445;28;20480;-78
2022/08/12 01:00:50;;;;;;;1999.90;999.90;;;;;;;21.11;50.43;97993.19;5062188;28;20036;-77
2022/08/12 01:03:18;;;;;;;1999.90;999.90;;;;;;;21.12;50.08;97996.78;5059088;28;20029;-77
2022/08/12 01:11:33;;;;;;;1999.90;999.90;;;;;;;21.04;50.69;97976.31;5058765;28;20413;-78
2022/08/12 01:14:00;;;;;;;1999.90;999.90;;;;;;;21.00;51.10;97972.66;5060418;28;20044;-78
2022/08/12 01:16:27;;;;;;;1999.90;999.90;;;;;;;20.96;51.18;97966.19;5062399;28;20029;-78
2022/08/12 01:18:54;;;;;;;1999.90;999.90;;;;;;;20.87;51.29;97968.38;5061525;28;20032;-77
2022/08/12 01:21:25;;;;;;;1999.90;999.90;;;;;;;20.83;51.04;97970.28;5058018;28;20029;-79
2022/08/12 01:24:29;;;;;;;1999.90;999.90;;;;;;;20.83;51.25;97968.28;5055135;28;20126;-77
2022/08/12 01:26:55;;;;;;;1999.90;999.90;;;;;;;20.86;51.67;97971.53;5055323;28;20108;-78
2022/08/12 01:29:27;;;;;;;1999.90;999.90;;;;;;;20.87;51.65;97979.50;5055207;28;20025;-77
2022/08/12 01:31:56;;;;;;;1999.90;999.90;;;;;;;20.80;52.13;97973.75;5055068;28;20508;-78
2022/08/12 01:34:27;;;;;;;1999.90;999.90;;;;;;;20.81;52.24;97980.94;5055063;28;20025;-77
2022/08/12 01:36:59;;;;;;;1999.90;999.90;;;;;;;20.70;52.86;97971.56;5059497;28;20049;-77
2022/08/12 01:39:49;;;;;;;1999.90;999.90;;;;;;;20.75;54.30;97982.38;5055862;28;20029;-78
2022/08/12 01:42:19;;;;;;;1999.90;999.90;;;;;;;20.71;52.94;97978.69;5059524;28;20033;-77
2022/08/12 01:44:46;;;;;;;1999.90;999.90;;;;;;;20.64;53.90;97975.78;5056841;28;20043;-76
2022/08/12 01:47:48;;;;;;;1999.90;999.90;;;;;;;20.57;53.53;97965.28;5058447;28;20503;-77
2022/08/12 01:50:23;;;;;;;1999.90;999.90;;;;;;;20.57;54.25;97956.13;5050042;28;20067;-77
2022/08/12 01:53:10;;;;;;;1999.90;999.90;;;;;;;20.54;53.35;97959.63;5056924;28;20431;-77
2022/08/12 01:55:40;;;;;;;1999.90;999.90;;;;;;;20.57;52.61;97953.34;5055925;28;20033;-77
2022/08/12 01:58:23;;;;;;;1999.90;999.90;;;;;;;20.52;52.61;97950.84;5053750;28;20028;-76
2022/08/12 02:01:02;;;;;;;1999.90;999.90;;;;;;;20.54;52.55;97943.78;5054425;28;20044;-77
2022/08/12 02:12:57;;;;;;;1999.90;999.90;;;;;;;20.47;52.01;97960.28;5054003;28;20036;-77
2022/08/12 02:15:43;;;;;;;1999.90;999.90;;;;;;;20.48;52.30;97952.75;5053457;28;20033;-76
2022/08/12 02:18:17;;;;;;;1999.90;999.90;;;;;;;20.52;52.86;97953.63;5054744;28;20045;-77
2022/08/12 02:20:59;;;;;;;1999.90;999.90;;;;;;;20.39;52.48;97947.38;5057035;28;20021;-76
2022/08/12 02:23:27;;;;;;;1999.90;999.90;;;;;;;20.53;53.60;97958.00;5059075;28;20044;-75
2022/08/12 02:26:02;;;;;;;1999.90;999.90;;;;;;;20.41;53.54;97958.13;5057407;28;20477;-76
2022/08/12 02:28:28;;;;;;;1999.90;999.90;;;;;;;20.45;52.16;97959.03;5055240;28;20033;-77
2022/08/12 02:30:55;;;;;;;1999.90;999.90;;;;;;;20.47;52.59;97956.69;5056371;28;20025;-77
2022/08/12 02:33:21;;;;;;;1999.90;999.90;;;;;;;20.48;52.68;97963.88;5057837;28;20029;-77
2022/08/12 02:35:47;;;;;;;1999.90;999.90;;;;;;;20.49;52.18;97963.50;5058704;28;20044;-77
2022/08/12 02:38:13;;;;;;;1999.90;999.90;;;;;;;20.48;51.95;97967.44;5058694;28;20017;-78
2022/08/12 02:40:44;;;;;;;1999.90;999.90;;;;;;;20.48;52.82;97966.63;5056200;28;20033;-74
2022/08/12 02:43:27;;;;;;;1999.90;999.90;;;;;;;20.42;52.43;97973.63;5055345;28;20201;-77
2022/08/12 02:46:00;;;;;;;1999.90;999.90;;;;;;;20.43;52.49;97976.03;5057191;28;20052;-76
2022/08/12 02:48:32;;;;;;;1999.90;999.90;;;;;;;20.46;52.56;97969.75;5055441;28;20028;-75
2022/08/12 02:51:04;;;;;;;1999.90;999.90;;;;;;;20.36;52.64;97981.41;5053015;28;20024;-75
2022/08/12 02:53:31;;;;;;;1999.90;999.90;;;;;;;20.42;53.08;97987.53;5054115;28;20057;-77
2022/08/12 02:56:01;;;;;;;1999.90;999.90;;;;;;;20.44;52.18;97987.97;5053368;28;20106;-77
2022/08/12 02:58:30;;;;;;;1999.90;999.90;;;;;;;20.51;52.21;97996.50;5054453;28;20508;-77
2022/08/12 03:01:00;;;;;;;1999.90;999.90;;;;;;;20.54;51.42;97993.00;5053922;28;20025;-77
2022/08/12 03:03:30;;;;;;;1999.90;999.90;;;;;;;20.54;51.94;97993.00;5053760;28;20017;-76
2022/08/12 03:06:00;;;;;;;1999.90;999.90;;;;;;;20.49;52.22;97985.72;5053906;28;20171;-77
2022/08/12 03:08:30;;;;;;;1999.90;999.90;;;;;;;20.53;52.91;97996.94;5052926;28;20439;-76
2022/08/12 03:11:02;;;;;;;1999.90;999.90;;;;;;;20.47;52.57;97999.19;5054805;28;20043;-77
2022/08/12 03:13:32;;;;;;;1999.90;999.90;;;;;;;20.49;53.36;97996.84;5057222;28;20021;-77
2022/08/12 03:15:58;;;;;;;1999.90;999.90;;;;;;;20.43;53.75;97994.69;5056282;28;20066;-77
2022/08/12 03:18:30;;;;;;;1999.90;999.90;;;;;;;20.40;57.66;98001.78;5055215;28;20480;-77
2022/08/12 03:20:57;;;;;;;1999.90;999.90;;;;;;;20.28;60.01;97999.09;5053504;28;20037;-77
2022/08/12 03:23:23;;;;;;;1999.90;999.90;;;;;;;20.15;62.15;98003.88;5054269;28;20041;-77
2022/08/12 03:25:52;;;;;;;1999.90;999.90;;;;;;;19.99;64.32;97997.50;5053911;28;20063;-77
2022/08/12 03:31:04;;;;;;;1999.90;999.90;;;;;;;19.73;66.04;97999.97;5055222;28;20047;-76
2022/08/12 03:33:34;;;;;;;1999.90;999.90;;;;;;;19.67;68.15;97999.38;5055195;28;20392;-77
2022/08/12 03:36:02;;;;;;;1999.90;999.90;;;;;;;19.63;68.77;97989.34;5054563;28;20083;-77
2022/08/12 03:38:28;;;;;;;1999.90;999.90;;;;;;;19.55;69.64;97993.06;5053798;28;20033;-77
2022/08/12 04:00:36;;;;;;;1999.90;999.90;;;;;;;18.50;88.13;97980.31;5054405;28;20131;-75
2022/08/12 04:03:04;;;;;;;1999.90;999.90;;;;;;;18.31;86.29;97968.97;5055163;28;20029;-77
2022/08/12 04:05:31;;;;;;;1999.90;999.90;;;;;;;18.33;92.40;97961.91;5059782;28;20473;-76
2022/08/12 04:08:02;;;;;;;1999.90;999.90;;;;;;;18.28;91.02;97966.88;5058967;28;20117;-77
2022/08/12 04:13:18;;;;;;;1999.90;999.90;;;;;;;18.32;100.00;97970.59;5051867;28;20495;-77
2022/08/12 04:15:45;;;;;;;1999.90;999.90;;;;;;;18.26;95.32;97961.72;5051625;28;20107;-77
2022/08/12 04:18:17;;;;;;;1999.90;999.90;;;;;;;18.20;92.63;97957.53;5051623;28;20492;-76
2022/08/12 04:20:46;;;;;;;1999.90;999.90;;;;;;;18.30;90.87;97950.72;5052924;28;20033;-76
2022/08/12 04:23:14;;;;;;;1999.90;999.90;;;;;;;18.41;91.39;97954.66;5055254;28;20037;-77
2022/08/12 04:25:40;;;;;;;1999.90;999.90;;;;;;;18.44;94.99;97952.00;5055691;28;20025;-77
2022/08/12 04:28:07;;;;;;;1999.90;999.90;;;;;;;18.32;98.17;97951.19;5056038;28;20036;-77
2022/08/12 04:30:33;;;;;;;1999.90;999.90;;;;;;;18.27;98.81;97951.41;5050522;28;20021;-78
2022/08/12 04:32:58;;;;;;;1999.90;999.90;;;;;;;18.11;100.00;97954.88;5041507;28;20028;-76
2022/08/12 04:35:24;;;;;;;1999.90;999.90;;;;;;;17.93;100.00;97953.47;5035123;28;20057;-77
2022/08/12 04:37:54;;;;;;;1999.90;999.90;;;;;;;18.06;100.00;97952.34;5035342;28;20048;-77
2022/08/12 04:40:23;;;;;;;1999.90;999.90;;;;;;;18.18;100.00;97954.31;5035089;28;20055;-77
2022/08/12 04:42:50;;;;;;;1999.90;999.90;;;;;;;18.00;100.00;97955.66;5035515;28;20394;-77
2022/08/12 04:45:18;;;;;;;1999.90;999.90;;;;;;;18.02;100.00;97958.88;5035391;28;20362;-77
2022/08/12 04:47:44;;;;;;;1999.90;999.90;;;;;;;18.05;100.00;97955.44;5036300;28;20028;-77
2022/08/12 04:50:13;;;;;;;1999.90;999.90;;;;;;;18.27;100.00;97956.94;5053666;28;20377;-77
2022/08/12 04:52:40;;;;;;;1999.90;999.90;;;;;;;18.36;100.00;97954.88;5050771;28;20033;-77
2022/08/12 04:55:09;;;;;;;1999.90;999.90;;;;;;;18.41;100.00;97955.47;5035037;28;20029;-77
2022/08/12 04:57:34;;;;;;;1999.90;999.90;;;;;;;18.15;100.00;97949.44;5033602;28;20021;-77
2022/08/12 05:00:00;;;;;;;1999.90;999.90;;;;;;;18.26;100.00;97958.94;5034122;28;20065;-77
2022/08/12 05:02:25;;;;;;;1999.90;999.90;;;;;;;18.08;100.00;97955.56;5034555;28;20041;-77
2022/08/12 05:04:56;;;;;;;1999.90;999.90;;;;;;;18.17;100.00;97960.97;5034088;28;20108;-77
2022/08/12 05:07:22;;;;;;;1999.90;999.90;;;;;;;18.11;100.00;97963.16;5034097;28;20022;-77
2022/08/12 05:09:48;;;;;;;1999.90;999.90;;;;;;;18.27;100.00;97973.56;5034259;28;20025;-77
2022/08/12 05:12:18;;;;;;;1999.90;999.90;;;;;;;18.27;100.00;97968.84;5034815;28;20037;-77
2022/08/12 05:14:44;;;;;;;1999.90;999.90;;;;;;;18.06;100.00;97960.63;5034148;28;20037;-78
2022/08/12 05:17:10;;;;;;;1999.90;999.90;;;;;;;18.02;100.00;97951.41;5034087;28;20113;-77
2022/08/12 05:19:35;;;;;;;1999.90;999.90;;;;;;;17.96;100.00;97958.31;5033914;28;20460;-77
2022/08/12 05:22:00;;;;;;;1999.90;999.90;;;;;;;18.01;100.00;97965.59;5034036;28;20056;-77
2022/08/12 05:24:25;;;;;;;1999.90;999.90;;;;;;;17.93;100.00;97970.06;5032643;28;20034;-77
2022/08/12 05:26:51;;;;;;;1999.90;999.90;;;;;;;17.94;100.00;97968.13;5033716;28;20029;-78
2022/08/12 05:29:16;;;;;;;1999.90;999.90;;;;;;;17.95;100.00;97967.75;5033557;28;20025;-78
2022/08/12 05:31:42;;;;;;;1999.90;999.90;;;;;;;18.12;100.00;97975.06;5033610;28;20031;-78
2022/08/12 05:34:13;;;;;;;1999.90;999.90;;;;;;;18.32;100.00;97978.91;5039159;28;20121;-78
2022/08/12 05:36:39;;;;;;;1999.90;999.90;;;;;;;18.36;100.00;97972.31;5054517;28;20051;-77
2022/08/12 05:39:04;;;;;;;1999.90;999.90;;;;;;;18.31;100.00;97978.09;5041284;28;20041;-78
2022/08/12 05:41:33;;;;;;;1999.90;999.90;;;;;;;18.21;100.00;97978.53;5034313;28;20099;-77
2022/08/12 05:44:05;;;;;;;1999.90;999.90;;;;;;;18.19;99.08;97972.53;5041447;28;20382;-77
2022/08/12 05:46:31;;;;;;;1999.90;999.90;;;;;;;18.19;97.60;97980.84;5054038;28;20108;-77
2022/08/12 05:49:00;;;;;;;1999.90;999.90;;;;;;;18.39;94.22;97979.09;5054540;28;20033;-77
2022/08/12 05:51:28;;;;;;;1999.90;999.90;;;;;;;18.57;94.47;97975.00;5054921;28;20040;-76
2022/08/12 05:53:54;;;;;;;1999.90;999.90;;;;;;;18.52;94.70;97981.59;5052011;28;20025;-73
2022/08/12 05:56:33;;;;;;;1999.90;999.90;;;;;;;18.72;94.56;97988.16;5043808;28;20123;-74
2022/08/12 05:59:00;;;;;;;1999.90;999.90;;;;;;;18.72;89.70;97990.94;5032199;28;20033;-73
2022/08/12 06:01:28;;;;;;;1999.90;999.90;;;;;;;18.83;88.15;97989.28;5036495;28;20036;-72
2022/08/12 06:03:54;;;;;;;1999.90;999.90;;;;;;;18.89;84.71;97984.34;5046452;28;20393;-73
2022/08/12 06:06:21;;;;;;;1999.90;999.90;;;;;;;19.01;86.46;97987.91;5050521;28;20044;-72
2022/08/12 06:08:52;;;;;;;1999.90;999.90;;;;;;;19.11;83.92;97987.41;5049586;28;20025;-73
2022/08/12 06:11:18;;;;;;;1999.90;999.90;;;;;;;19.44;83.61;97994.75;5051187;28;20415;-74
2022/08/12 06:13:44;;;;;;;1999.90;999.90;;;;;;;19.81;83.34;97979.53;5048414;28;20037;-73
2022/08/12 06:16:13;;;;;;;1999.90;999.90;;;;;;;20.28;79.83;97988.78;5050186;28;20025;-74
2022/08/12 06:18:40;;;;;;;1999.90;999.90;;;;;;;20.66;76.61;97987.34;5048658;28;20035;-74
2022/08/12 06:21:11;;;;;;;1999.90;999.90;;;;;;;20.84;73.98;97991.34;5045011;28;20669;-72
2022/08/12 06:23:37;;;;;;;1999.90;999.90;;;;;;;20.62;72.90;97994.78;5050783;28;20136;-74
2022/08/12 06:26:06;;;;;;;1999.90;999.90;;;;;;;20.54;72.87;97999.38;5051877;28;20025;-74
2022/08/12 06:28:32;;;;;;;1999.90;999.90;;;;;;;20.47;73.86;97992.81;5050634;28;20038;-74
2022/08/12 06:30:57;;;;;;;1999.90;999.90;;;;;;;20.75;73.14;97993.50;5051348;28;20025;-72
2022/08/12 06:33:23;;;;;;;1999.90;999.90;;;;;;;21.18;70.06;97993.34;5049444;28;20405;-71
2022/08/12 06:35:49;;;;;;;1999.90;999.90;;;;;;;22.18;66.27;98002.56;5050161;28;20093;-74
2022/08/12 06:38:24;;;;;;;1999.90;999.90;;;;;;;22.72;63.30;97993.19;5050423;28;20071;-72
2022/08/12 06:43:37;;;;;;;1999.90;999.90;;;;;;;22.80;62.37;97992.13;5050597;28;20052;-72
2022/08/12 06:46:04;;;;;;;1999.90;999.90;;;;;;;22.85;61.98;97986.22;5051458;28;20025;-71
2022/08/12 06:48:32;;;;;;;1999.90;999.90;;;;;;;23.10;60.87;97983.81;5050944;28;20100;-72
2022/08/12 06:51:00;;;;;;;1999.90;999.90;;;;;;;23.25;60.67;97980.03;5048511;28;20401;-72
2022/08/12 06:53:26;;;;;;;1999.90;999.90;;;;;;;23.73;58.99;97990.28;5047526;28;20024;-72
2022/08/12 06:55:56;;;;;;;1999.90;999.90;;;;;;;23.50;59.48;97983.16;5049406;28;20029;-74
2022/08/12 06:58:23;;;;;;;1999.90;999.90;;;;;;;23.42;58.98;97993.47;5049303;28;20482;-71
2022/08/12 07:00:50;;;;;;;1999.90;999.90;;;;;;;23.00;61.40;97999.19;5048116;28;20434;-73
2022/08/12 07:03:28;;;;;;;1999.90;999.90;;;;;;;23.18;60.47;97977.16;5049431;28;20499;-71
2022/08/12 07:05:55;;;;;;;1999.90;999.90;;;;;;;23.45;59.69;97987.94;5047054;28;20025;-72
2022/08/12 07:08:26;;;;;;;1999.90;999.90;;;;;;;22.93;60.04;97993.50;5044308;28;20030;-76
2022/08/12 07:11:00;;;;;;;1999.90;999.90;;;;;;;22.71;61.33;97986.00;5042111;28;20120;-73
2022/08/12 07:13:42;;;;;;;1999.90;999.90;;;;;;;23.01;60.30;97989.66;5029804;28;20025;-74
2022/08/12 07:16:12;;;;;;;1999.90;999.90;;;;;;;23.17;60.16;97983.91;5029324;28;20290;-73
2022/08/12 07:18:38;;;;;;;1999.90;999.90;;;;;;;23.15;59.53;97992.66;5029459;28;20025;-72
2022/08/12 07:21:05;;;;;;;1999.90;999.90;;;;;;;22.90;59.81;97988.69;5039929;28;20029;-73
2022/08/12 07:23:32;;;;;;;1999.90;999.90;;;;;;;23.05;59.48;97972.97;5048439;28;20111;-73
2022/08/12 07:26:00;;;;;;;1999.90;999.90;;;;;;;23.30;56.89;97994.47;5048149;28;20029;-75
2022/08/12 07:28:30;;;;;;;1999.90;999.90;;;;;;;23.32;57.43;97988.50;5050158;28;20495;-75
2022/08/12 07:30:56;;;;;;;1999.90;999.90;;;;;;;23.90;54.61;97994.47;5049658;28;20032;-75
2022/08/12 07:33:27;;;;;;;1999.90;999.90;;;;;;;24.97;52.56;97991.50;5049557;28;20056;-74
2022/08/12 07:35:54;;;;;;;1999.90;999.90;;;;;;;25.48;48.92;98000.63;5049457;28;20044;-75
2022/08/12 07:38:23;;;;;;;1999.90;999.90;;;;;;;24.40;48.51;98002.19;5049573;28;20111;-75
2022/08/12 07:40:50;;;;;;;1999.90;999.90;;;;;;;23.56;50.74;97999.22;5049760;28;20029;-74
2022/08/12 07:43:16;;;;;;;1999.90;999.90;;;;;;;23.91;50.91;97996.06;5050110;28;20025;-75
2022/08/12 07:45:41;;;;;;;1999.90;999.90;;;;;;;23.74;50.82;97988.28;5049923;28;20028;-75
2022/08/12 07:48:06;;;;;;;1999.90;999.90;;;;;;;23.65;51.11;97994.16;5050299;28;20021;-75
2022/08/12 07:50:32;;;;;;;1999.90;999.90;;;;;;;24.11;49.85;98000.31;5050668;28;20025;-75
2022/08/12 07:52:58;;;;;;;1999.90;999.90;;;;;;;25.71;46.66;98007.97;5050425;28;20362;-74
2022/08/12 07:55:23;;;;;;;1999.90;999.90;;;;;;;25.14;46.01;97998.44;5049550;28;20397;-75
2022/08/12 07:57:59;;;;;;;1999.90;999.90;;;;;;;25.53;45.45;98005.88;5050399;28;20758;-75
2022/08/12 08:00:27;;;;;;;1999.90;999.90;;;;;;;24.93;46.89;97996.28;5050208;28;20477;-75
2022/08/12 08:02:53;;;;;;;1999.90;999.90;;;;;;;25.40;45.89;98001.81;5049993;28;20040;-75
2022/08/12 08:05:21;;;;;;;1999.90;999.90;;;;;;;25.18;45.51;98000.06;5050084;28;20036;-74
2022/08/12 08:07:47;;;;;;;1999.90;999.90;;;;;;;25.34;45.06;97992.13;5050169;28;20029;-75
2022/08/12 08:10:12;;;;;;;1999.90;999.90;;;;;;;25.74;43.76;97985.59;5049726;28;20041;-74
2022/08/12 08:12:53;;;;;;;1999.90;999.90;;;;;;;25.91;43.73;97990.44;5050363;28;20052;-75
2022/08/12 08:15:23;;;;;;;1999.90;999.90;;;;;;;25.50;43.88;97989.88;5050016;28;20047;-75
2022/08/12 08:18:03;;;;;;;1999.90;999.90;;;;;;;24.84;45.63;97993.03;5050028;28;20489;-75
2022/08/12 08:20:34;;;;;;;1999.90;999.90;;;;;;;24.32;45.49;97994.13;5050314;28;20041;-76
2022/08/12 08:23:07;;;;;;;1999.90;999.90;;;;;;;24.46;43.87;97981.06;5049974;28;20045;-74
2022/08/12 08:25:37;;;;;;;1999.90;999.90;;;;;;;24.57;42.92;98000.75;5050568;28;20063;-76
2022/08/12 08:28:05;;;;;;;1999.90;999.90;;;;;;;24.17;42.25;97987.59;5050481;28;20029;-75
2022/08/12 08:30:31;;;;;;;1999.90;999.90;;;;;;;24.43;42.99;97987.44;5050582;28;20503;-75
2022/08/12 08:32:57;;;;;;;1999.90;999.90;;;;;;;24.55;42.41;97997.56;5050452;28;20044;-75
2022/08/12 08:35:24;;;;;;;1999.90;999.90;;;;;;;23.96;44.05;97978.97;5050135;28;20049;-75
2022/08/12 08:37:50;;;;;;;1999.90;999.90;;;;;;;24.30;43.62;98002.91;5050228;28;20040;-74
2022/08/12 08:43:00;;;;;;;1999.90;999.90;;;;;;;24.28;43.95;97994.09;5050164;28;20036;-74
2022/08/12 08:45:27;;;;;;;1999.90;999.90;;;;;;;24.34;43.86;98003.72;5049807;28;20025;-75
2022/08/12 08:47:53;;;;;;;1999.90;999.90;;;;;;;24.03;44.22;97997.81;5048198;28;20473;-74
2022/08/12 08:50:19;;;;;;;1999.90;999.90;;;;;;;23.34;45.97;98009.28;5049391;28;20048;-75
2022/08/12 08:52:46;;;;;;;1999.90;999.90;;;;;;;23.46;45.60;97995.09;5049854;28;20017;-75
2022/08/12 08:55:14;;;;;;;1999.90;999.90;;;;;;;23.46;45.59;98011.84;5049506;28;20092;-74
2022/08/12 08:57:42;;;;;;;1999.90;999.90;;;;;;;23.29;44.37;98009.63;5046976;28;20021;-77
2022/08/12 09:00:16;;;;;;;1999.90;999.90;;;;;;;23.89;43.59;98013.22;5051041;28;20025;-74
2022/08/12 09:02:42;;;;;;;1999.90;999.90;;;;;;;24.10;43.99;98009.84;5048297;28;20029;-75
2022/08/12 09:05:07;;;;;;;1999.90;999.90;;;;;;;24.22;43.72;98001.22;5051445;28;20028;-77
2022/08/12 09:07:49;;;;;;;1999.90;999.90;;;;;;;23.94;43.99;98007.28;5052598;28;20397;-76
2022/08/12 09:10:18;;;;;;;1999.90;999.90;;;;;;;23.92;43.96;98011.66;5055303;28;20040;-76
2022/08/12 09:15:29;;;;;;;1999.90;999.90;;;;;;;24.01;43.70;98020.53;5062477;28;20055;-78
2022/08/12 09:17:56;;;;;;;1999.90;999.90;;;;;;;23.63;44.25;98020.84;5067517;28;20088;-77
2022/08/12 09:20:27;;;;;;;1999.90;999.90;;;;;;;23.90;44.58;98025.22;5071785;28;20033;-79
2022/08/12 09:22:53;;;;;;;1999.90;999.90;;;;;;;23.64;44.94;98019.69;5073526;28;20027;-81
2022/08/12 09:25:20;;;;;;;1999.90;999.90;;;;;;;24.22;44.14;98001.22;5062114;28;20008;-79
2022/08/12 09:27:46;;;;;;;1999.90;999.90;;;;;;;24.36;43.47;98022.94;5065158;28;20021;-78
2022/08/12 09:30:14;;;;;;;1999.90;999.90;;;;;;;24.33;44.07;98012.53;5064576;28;20021;-81
2022/08/12 09:32:51;;;;;;;1999.90;999.90;;;;;;;24.30;44.00;98030.88;5083664;28;20044;-77
2022/08/12 09:35:23;;;;;;;1999.90;999.90;;;;;;;23.61;45.88;98014.84;5086359;28;20017;-76
2022/08/12 09:37:50;;;;;;;1999.90;999.90;;;;;;;23.75;45.66;98010.25;5060420;28;20070;-74
2022/08/12 09:40:17;;;;;;;1999.90;999.90;;;;;;;24.06;44.51;98014.59;5066494;28;20023;-75
2022/08/12 09:45:30;;;;;;;1999.90;999.90;;;;;;;24.42;44.46;98002.63;5059546;28;20392;-75
2022/08/12 09:47:58;;;;;;;1999.90;999.90;;;;;;;24.65;42.33;98002.44;5066346;28;20041;-75
2022/08/12 09:50:24;;;;;;;1999.90;999.90;;;;;;;25.20;42.07;98000.47;5063212;28;20552;-74
2022/08/12 09:53:06;;;;;;;1999.90;999.90;;;;;;;24.66;42.29;97998.44;5057701;28;20103;-74
2022/08/12 09:55:32;;;;;;;1999.90;999.90;;;;;;;24.34;43.74;97995.34;5040586;28;20085;-75
2022/08/12 09:57:58;;;;;;;1999.90;999.90;;;;;;;24.86;42.00;98004.63;5064177;28;20472;-76
2022/08/12 10:00:26;;;;;;;1999.90;999.90;;;;;;;24.73;41.70;98004.09;5061901;28;20056;-77
2022/08/12 10:03:24;;;;;;;1999.90;999.90;;;;;;;24.27;42.93;98009.28;5067278;28;20445;-75
2022/08/12 10:05:50;;;;;;;1999.90;999.90;;;;;;;24.70;41.29;98004.06;5055185;28;20536;-76
2022/08/12 10:08:16;;;;;;;1999.90;999.90;;;;;;;23.77;42.79;97996.72;5054949;28;20389;-75
2022/08/12 10:13:43;;;;;;;1999.90;999.90;;;;;;;24.02;43.99;97985.81;5055690;28;20109;-74
2022/08/12 10:16:13;;;;;;;1999.90;999.90;;;;;;;23.78;45.15;97989.91;5063687;28;20116;-74
2022/08/12 10:18:42;;;;;;;1999.90;999.90;;;;;;;23.70;45.87;97985.44;5053382;28;20074;-76
2022/08/12 10:21:11;;;;;;;1999.90;999.90;;;;;;;23.81;44.87;97988.34;5069216;28;20024;-74
2022/08/12 10:23:37;;;;;;;1999.90;999.90;;;;;;;23.24;46.75;97984.78;5056079;28;20072;-74
2022/08/12 10:31:31;;;;;;;1999.90;999.90;;;;;;;24.46;43.11;97983.88;5040870;28;20393;-74
2022/08/12 10:33:57;;;;;;;1999.90;999.90;;;;;;;24.62;43.02;97974.44;5050234;28;20132;-74
2022/08/12 10:36:23;;;;;;;1999.90;999.90;;;;;;;23.84;44.58;97982.81;5061864;28;20044;-75
2022/08/12 10:38:49;;;;;;;1999.90;999.90;;;;;;;23.79;44.21;97976.75;5050730;28;20401;-74
2022/08/12 10:44:02;;;;;;;1999.90;999.90;;;;;;;24.33;43.28;97979.78;5049071;28;20043;-73
2022/08/12 10:46:27;;;;;;;1999.90;999.90;;;;;;;24.75;41.77;97970.13;5047315;28;20112;-75
2022/08/12 10:48:52;;;;;;;1999.90;999.90;;;;;;;25.09;41.58;97977.22;5048181;28;20111;-74
2022/08/12 10:51:18;;;;;;;1999.90;999.90;;;;;;;24.94;41.65;97964.28;5047655;28;20029;-74
2022/08/12 10:53:47;;;;;;;1999.90;999.90;;;;;;;24.30;42.84;97963.75;5048412;28;20489;-75
2022/08/12 10:56:17;;;;;;;1999.90;999.90;;;;;;;24.12;43.75;97968.34;5048378;28;20043;-74
2022/08/12 10:58:44;;;;;;;1999.90;999.90;;;;;;;24.23;42.19;97974.06;5048021;28;20051;-75
2022/08/12 11:01:09;;;;;;;1999.90;999.90;;;;;;;23.65;44.10;97969.00;5048217;28;20036;-74
2022/08/12 11:03:37;;;;;;;1999.90;999.90;;;;;;;23.78;43.51;97978.75;5049844;28;20033;-76
2022/08/12 11:06:05;;;;;;;1999.90;999.90;;;;;;;23.19;44.42;97976.75;5050404;28;20021;-74
2022/08/12 11:08:31;;;;;;;1999.90;999.90;;;;;;;23.27;44.34;97967.31;5048415;28;20071;-74
2022/08/12 11:10:56;;;;;;;1999.90;999.90;;;;;;;23.00;45.42;97974.09;5047802;28;20544;-75
2022/08/12 11:13:22;;;;;;;1999.90;999.90;;;;;;;23.08;44.68;97964.66;5047944;28;20119;-74
2022/08/12 11:15:47;;;;;;;1999.90;999.90;;;;;;;23.00;45.01;97962.94;5047864;28;20057;-74
2022/08/12 11:18:13;;;;;;;1999.90;999.90;;;;;;;22.98;45.17;97959.72;5046374;28;20120;-75
2022/08/12 11:20:39;;;;;;;1999.90;999.90;;;;;;;22.91;46.27;97949.25;5048171;28;20127;-73
2022/08/12 11:23:04;;;;;;;1999.90;999.90;;;;;;;23.49;45.62;97953.66;5046277;28;20119;-74
2022/08/12 11:25:30;;;;;;;1999.90;999.90;;;;;;;23.73;44.50;97945.56;5048124;28;20029;-74
2022/08/12 11:27:56;;;;;;;1999.90;999.90;;;;;;;23.60;44.83;97957.38;5047920;28;20025;-76
2022/08/12 11:30:21;;;;;;;1999.90;999.90;;;;;;;23.38;46.00;97954.28;5045368;28;20027;-74
2022/08/12 11:32:46;;;;;;;1999.90;999.90;;;;;;;23.39;45.68;97960.69;5050073;28;20024;-77
2022/08/12 11:35:12;;;;;;;1999.90;999.90;;;;;;;23.18;46.86;97957.63;5049747;28;20090;-73
2022/08/12 11:37:39;;;;;;;1999.90;999.90;;;;;;;23.27;47.36;97955.34;5048323;28;20028;-77
2022/08/12 11:40:05;;;;;;;1999.90;999.90;;;;;;;23.03;46.62;97953.81;5048278;28;20071;-76
2022/08/12 11:42:31;;;;;;;1999.90;999.90;;;;;;;23.17;47.94;97956.81;5048623;28;20044;-75
2022/08/12 11:44:56;;;;;;;1999.90;999.90;;;;;;;23.28;48.61;97957.75;5046228;28;20028;-74
2022/08/12 11:47:22;;;;;;;1999.90;999.90;;;;;;;23.04;49.57;97957.41;5049597;28;20489;-73
2022/08/12 11:49:47;;;;;;;1999.90;999.90;;;;;;;23.10;49.30;97945.53;5051125;28;20108;-75
2022/08/12 11:52:12;;;;;;;1999.90;999.90;;;;;;;23.77;48.21;97959.59;5047710;28;20052;-74
2022/08/12 11:54:37;;;;;;;1999.90;999.90;;;;;;;24.08;46.99;97956.31;5047494;28;20064;-74
2022/08/12 11:57:04;;;;;;;1999.90;999.90;;;;;;;23.69;46.61;97961.47;5047807;28;20025;-75
2022/08/12 11:59:31;;;;;;;1999.90;999.90;;;;;;;23.55;45.91;97968.88;5048471;28;20044;-76
2022/08/12 12:01:56;;;;;;;1999.90;999.90;;;;;;;23.33;46.46;97965.81;5047533;28;20024;-75
2022/08/12 12:04:21;;;;;;;1999.90;999.90;;;;;;;23.54;47.52;97956.91;5049154;28;20579;-74
2022/08/12 12:06:47;;;;;;;1999.90;999.90;;;;;;;23.94;46.30;97956.97;5047073;28;20047;-74
2022/08/12 12:09:12;;;;;;;1999.90;999.90;;;;;;;24.02;45.60;97945.88;5048557;28;20067;-74
2022/08/12 12:11:37;;;;;;;1999.90;999.90;;;;;;;24.22;44.83;97956.47;5047602;28;20496;-75
2022/08/12 12:14:03;;;;;;;1999.90;999.90;;;;;;;24.29;44.07;97956.56;5047730;28;20049;-73
2022/08/12 12:16:28;;;;;;;1999.90;999.90;;;;;;;24.14;44.45;97948.41;5048259;28;20025;-73
2022/08/12 12:18:53;;;;;;;1999.90;999.90;;;;;;;24.00;43.92;97960.22;5046082;28;20033;-73
2022/08/12 12:21:19;;;;;;;1999.90;999.90;;;;;;;23.83;44.46;97949.66;5048388;28;21744;-75
2022/08/12 12:23:44;;;;;;;1999.90;999.90;;;;;;;23.89;44.54;97954.53;5043813;28;20607;-73
2022/08/12 12:26:10;;;;;;;1999.90;999.90;;;;;;;23.96;44.41;97954.59;5047702;28;20627;-76
2022/08/12 12:28:37;;;;;;;1999.90;999.90;;;;;;;24.07;45.08;97951.91;5047045;28;20091;-76
2022/08/12 12:31:04;;;;;;;1999.90;999.90;;;;;;;24.11;44.49;97950.00;5047322;28;20036;-75
2022/08/12 12:33:29;;;;;;;1999.90;999.90;;;;;;;24.05;44.45;97943.13;5050016;28;20119;-74
2022/08/12 12:35:54;;;;;;;1999.90;999.90;;;;;;;24.04;44.68;97943.50;5047456;28;20048;-75
2022/08/12 12:38:20;;;;;;;1999.90;999.90;;;;;;;24.14;44.66;97938.03;5043559;28;20029;-74
2022/08/12 12:40:47;;;;;;;1999.90;999.90;;;;;;;23.91;45.24;97945.75;5042646;28;20373;-74
2022/08/12 12:43:13;;;;;;;1999.90;999.90;;;;;;;24.09;44.99;97941.13;5047042;28;20513;-72
2022/08/12 12:45:39;;;;;;;1999.90;999.90;;;;;;;24.62;43.91;97941.63;5048865;28;20485;-73